sensor_id;sensor_type;location;lat;lon;timestamp;temperature;humidity
10572;DHT22;5334;48.928;12.704;2023-09-12T00:00:48;20.20;99.90
10572;DHT22;5334;48.928;12.704;2023-09-12T00:03:14;20.10;99.90
10572;DHT22;5334;48.928;12.704;2023-09-12T00:05:40;20.10;99.90
10572;DHT22;5334;48.928;12.704;2023-09-12T00:08:06;20.10;99.90
10572;DHT22;5334;48.928;12.704;2023-09-12T00:10:32;20.10;99.90
10572;DHT22;5334;48.928;12.704;2023-09-12T00:12:58;20.10;99.90
10572;DHT22;5334;48.928;12.704;2023-09-12T00:15:27;20.00;99.90
10572;DHT22;5334;48.928;12.704;2023-09-12T00:22:46;19.60;99.90
10572;DHT22;5334;48.928;12.704;2023-09-12T00:25:11;19.50;99.90
10572;DHT22;5334;48.928;12.704;2023-09-12T00:27:37;19.50;99.90
10572;DHT22;5334;48.928;12.704;2023-09-12T00:30:03;19.50;99.90
10572;DHT22;5334;48.928;12.704;2023-09-12T00:32:29;19.50;99.90
10572;DHT22;5334;48.928;12.704;2023-09-12T00:34:54;19.50;99.90
10572;DHT22;5334;48.928;12.704;2023-09-12T00:37:20;19.60;99.90
10572;DHT22;5334;48.928;12.704;2023-09-12T00:39:45;19.50;99.90
10572;DHT22;5334;48.928;12.704;2023-09-12T00:42:12;19.40;99.90
10572;DHT22;5334;48.928;12.704;2023-09-12T00:44:38;19.30;99.90
10572;DHT22;5334;48.928;12.704;2023-09-12T00:47:04;19.20;99.90
10572;DHT22;5334;48.928;12.704;2023-09-12T00:49:30;19.20;99.90
10572;DHT22;5334;48.928;12.704;2023-09-12T00:51:56;19.20;99.90
10572;DHT22;5334;48.928;12.704;2023-09-12T00:54:22;19.30;99.90
10572;DHT22;5334;48.928;12.704;2023-09-12T00:56:48;19.20;99.90
10572;DHT22;5334;48.928;12.704;2023-09-12T00:59:15;19.80;99.90
10572;DHT22;5334;48.928;12.704;2023-09-12T01:01:42;19.10;99.90
10572;DHT22;5334;48.928;12.704;2023-09-12T01:04:08;19.10;99.90
10572;DHT22;5334;48.928;12.704;2023-09-12T01:06:34;19.10;99.90
10572;DHT22;5334;48.928;12.704;2023-09-12T01:09:00;19.00;99.90
10572;DHT22;5334;48.928;12.704;2023-09-12T01:11:27;19.00;99.90
10572;DHT22;5334;48.928;12.704;2023-09-12T01:13:53;19.30;99.90
10572;DHT22;5334;48.928;12.704;2023-09-12T01:16:19;19.30;99.90
10572;DHT22;5334;48.928;12.704;2023-09-12T01:21:37;18.70;99.90
10572;DHT22;5334;48.928;12.704;2023-09-12T01:27:23;17.70;99.90
10572;DHT22;5334;48.928;12.704;2023-09-12T01:29:56;18.70;99.90
10572;DHT22;5334;48.928;12.704;2023-09-12T01:32:23;18.70;99.90
10572;DHT22;5334;48.928;12.704;2023-09-12T01:34:49;18.60;99.90
10572;DHT22;5334;48.928;12.704;2023-09-12T01:37:15;18.50;99.90
10572;DHT22;5334;48.928;12.704;2023-09-12T01:39:41;18.50;99.90
10572;DHT22;5334;48.928;12.704;2023-09-12T01:42:09;18.50;99.90
10572;DHT22;5334;48.928;12.704;2023-09-12T01:44:37;18.50;99.90
10572;DHT22;5334;48.928;12.704;2023-09-12T01:47:05;18.50;99.90
10572;DHT22;5334;48.928;12.704;2023-09-12T01:49:32;18.50;99.90
10572;DHT22;5334;48.928;12.704;2023-09-12T01:51:59;18.60;99.90
10572;DHT22;5334;48.928;12.704;2023-09-12T01:54:26;18.60;99.90
10572;DHT22;5334;48.928;12.704;2023-09-12T01:56:54;18.60;99.90
10572;DHT22;5334;48.928;12.704;2023-09-12T01:59:23;18.70;99.90
10572;DHT22;5334;48.928;12.704;2023-09-12T02:01:49;18.60;99.90
10572;DHT22;5334;48.928;12.704;2023-09-12T02:04:14;18.60;99.90
10572;DHT22;5334;48.928;12.704;2023-09-12T02:06:40;18.50;99.90
10572;DHT22;5334;48.928;12.704;2023-09-12T02:09:06;18.50;99.90
10572;DHT22;5334;48.928;12.704;2023-09-12T02:11:31;18.40;99.90
10572;DHT22;5334;48.928;12.704;2023-09-12T02:13:57;18.40;99.90
10572;DHT22;5334;48.928;12.704;2023-09-12T02:16:23;18.40;99.90
10572;DHT22;5334;48.928;12.704;2023-09-12T02:18:48;18.40;99.90
10572;DHT22;5334;48.928;12.704;2023-09-12T02:21:14;18.30;99.90
10572;DHT22;5334;48.928;12.704;2023-09-12T02:23:41;18.30;99.90
10572;DHT22;5334;48.928;12.704;2023-09-12T02:26:07;18.30;99.90
10572;DHT22;5334;48.928;12.704;2023-09-12T02:28:33;18.30;99.90
10572;DHT22;5334;48.928;12.704;2023-09-12T02:30:59;18.30;99.90
10572;DHT22;5334;48.928;12.704;2023-09-12T02:33:24;18.30;99.90
10572;DHT22;5334;48.928;12.704;2023-09-12T02:35:50;18.30;99.90
10572;DHT22;5334;48.928;12.704;2023-09-12T02:38:17;18.20;99.90
10572;DHT22;5334;48.928;12.704;2023-09-12T02:40:43;18.30;99.90
10572;DHT22;5334;48.928;12.704;2023-09-12T02:43:08;18.30;99.90
10572;DHT22;5334;48.928;12.704;2023-09-12T02:45:34;18.30;99.90
10572;DHT22;5334;48.928;12.704;2023-09-12T02:47:59;18.30;99.90
10572;DHT22;5334;48.928;12.704;2023-09-12T02:50:25;18.30;99.90
10572;DHT22;5334;48.928;12.704;2023-09-12T02:52:51;18.20;99.90
10572;DHT22;5334;48.928;12.704;2023-09-12T02:55:16;18.20;99.90
10572;DHT22;5334;48.928;12.704;2023-09-12T02:57:42;18.10;99.90
10572;DHT22;5334;48.928;12.704;2023-09-12T03:00:08;18.10;99.90
10572;DHT22;5334;48.928;12.704;2023-09-12T03:02:34;18.00;99.90
10572;DHT22;5334;48.928;12.704;2023-09-12T03:07:29;17.80;99.90
10572;DHT22;5334;48.928;12.704;2023-09-12T03:09:55;17.80;99.90
10572;DHT22;5334;48.928;12.704;2023-09-12T03:12:21;17.90;99.90
10572;DHT22;5334;48.928;12.704;2023-09-12T03:14:47;17.90;99.90
10572;DHT22;5334;48.928;12.704;2023-09-12T03:17:12;17.90;99.90
10572;DHT22;5334;48.928;12.704;2023-09-12T03:19:38;17.90;99.90
10572;DHT22;5334;48.928;12.704;2023-09-12T03:22:04;17.90;99.90
10572;DHT22;5334;48.928;12.704;2023-09-12T03:24:29;18.00;99.90
10572;DHT22;5334;48.928;12.704;2023-09-12T03:26:56;18.00;99.90
10572;DHT22;5334;48.928;12.704;2023-09-12T03:29:22;18.10;99.90
10572;DHT22;5334;48.928;12.704;2023-09-12T03:31:48;18.10;99.90
10572;DHT22;5334;48.928;12.704;2023-09-12T03:34:14;18.00;99.90
10572;DHT22;5334;48.928;12.704;2023-09-12T03:36:39;18.00;99.90
10572;DHT22;5334;48.928;12.704;2023-09-12T03:39:05;18.00;99.90
10572;DHT22;5334;48.928;12.704;2023-09-12T03:41:34;18.00;99.90
10572;DHT22;5334;48.928;12.704;2023-09-12T03:44:00;18.00;99.90
10572;DHT22;5334;48.928;12.704;2023-09-12T03:46:25;18.00;99.90
10572;DHT22;5334;48.928;12.704;2023-09-12T03:48:51;18.00;99.90
10572;DHT22;5334;48.928;12.704;2023-09-12T03:51:17;18.00;99.90
10572;DHT22;5334;48.928;12.704;2023-09-12T03:53:43;17.90;99.90
10572;DHT22;5334;48.928;12.704;2023-09-12T03:56:09;17.90;99.90
10572;DHT22;5334;48.928;12.704;2023-09-12T03:58:38;17.90;99.90
10572;DHT22;5334;48.928;12.704;2023-09-12T04:01:04;17.90;99.90
10572;DHT22;5334;48.928;12.704;2023-09-12T04:03:29;17.90;99.90
10572;DHT22;5334;48.928;12.704;2023-09-12T04:05:55;17.90;99.90
10572;DHT22;5334;48.928;12.704;2023-09-12T04:08:20;17.90;99.90
10572;DHT22;5334;48.928;12.704;2023-09-12T04:10:46;17.90;99.90
10572;DHT22;5334;48.928;12.704;2023-09-12T04:13:12;17.90;99.90
10572;DHT22;5334;48.928;12.704;2023-09-12T04:15:37;17.90;99.90
10572;DHT22;5334;48.928;12.704;2023-09-12T04:18:04;18.00;99.90
10572;DHT22;5334;48.928;12.704;2023-09-12T04:20:30;17.90;99.90
10572;DHT22;5334;48.928;12.704;2023-09-12T04:22:55;17.80;99.90
10572;DHT22;5334;48.928;12.704;2023-09-12T04:25:21;17.70;99.90
10572;DHT22;5334;48.928;12.704;2023-09-12T04:32:39;17.60;99.90
10572;DHT22;5334;48.928;12.704;2023-09-12T04:35:05;17.60;99.90
10572;DHT22;5334;48.928;12.704;2023-09-12T04:37:31;17.60;99.90
10572;DHT22;5334;48.928;12.704;2023-09-12T04:39:56;17.70;99.90
10572;DHT22;5334;48.928;12.704;2023-09-12T04:42:22;17.80;99.90
10572;DHT22;5334;48.928;12.704;2023-09-12T04:44:48;17.80;99.90
10572;DHT22;5334;48.928;12.704;2023-09-12T04:47:14;17.80;99.90
10572;DHT22;5334;48.928;12.704;2023-09-12T04:49:41;17.80;99.90
10572;DHT22;5334;48.928;12.704;2023-09-12T04:54:33;18.00;99.90
10572;DHT22;5334;48.928;12.704;2023-09-12T04:56:59;18.00;99.90
10572;DHT22;5334;48.928;12.704;2023-09-12T04:59:24;18.00;99.90
10572;DHT22;5334;48.928;12.704;2023-09-12T05:01:50;18.10;99.90
10572;DHT22;5334;48.928;12.704;2023-09-12T05:04:16;18.10;99.90
10572;DHT22;5334;48.928;12.704;2023-09-12T05:06:42;18.10;99.90
10572;DHT22;5334;48.928;12.704;2023-09-12T05:09:07;18.10;99.90
10572;DHT22;5334;48.928;12.704;2023-09-12T05:11:34;18.10;99.90
10572;DHT22;5334;48.928;12.704;2023-09-12T05:14:00;18.10;99.90
10572;DHT22;5334;48.928;12.704;2023-09-12T05:16:29;18.10;99.90
10572;DHT22;5334;48.928;12.704;2023-09-12T05:18:54;18.20;99.90
10572;DHT22;5334;48.928;12.704;2023-09-12T05:21:20;18.20;99.90
10572;DHT22;5334;48.928;12.704;2023-09-12T05:23:46;18.30;99.90
10572;DHT22;5334;48.928;12.704;2023-09-12T05:26:12;18.30;99.90
10572;DHT22;5334;48.928;12.704;2023-09-12T05:28:37;18.40;99.90
10572;DHT22;5334;48.928;12.704;2023-09-12T05:31:03;18.40;99.90
10572;DHT22;5334;48.928;12.704;2023-09-12T05:33:29;18.50;99.90
10572;DHT22;5334;48.928;12.704;2023-09-12T05:35:54;18.50;99.90
10572;DHT22;5334;48.928;12.704;2023-09-12T05:38:20;18.60;99.90
10572;DHT22;5334;48.928;12.704;2023-09-12T05:40:46;18.70;99.90
10572;DHT22;5334;48.928;12.704;2023-09-12T05:43:12;18.90;99.90
10572;DHT22;5334;48.928;12.704;2023-09-12T05:45:37;19.10;99.90
10572;DHT22;5334;48.928;12.704;2023-09-12T05:48:03;19.30;99.90
10572;DHT22;5334;48.928;12.704;2023-09-12T05:50:30;19.50;99.90
10572;DHT22;5334;48.928;12.704;2023-09-12T05:52:55;19.50;99.90
10572;DHT22;5334;48.928;12.704;2023-09-12T05:55:21;19.70;99.90
10572;DHT22;5334;48.928;12.704;2023-09-12T05:57:48;19.70;99.90
10572;DHT22;5334;48.928;12.704;2023-09-12T06:00:17;19.90;99.90
10572;DHT22;5334;48.928;12.704;2023-09-12T06:02:44;20.00;99.90
10572;DHT22;5334;48.928;12.704;2023-09-12T06:05:10;20.10;99.90
10572;DHT22;5334;48.928;12.704;2023-09-12T06:07:37;20.20;99.90
10572;DHT22;5334;48.928;12.704;2023-09-12T06:10:04;20.30;99.90
10572;DHT22;5334;48.928;12.704;2023-09-12T06:12:30;20.40;99.90
10572;DHT22;5334;48.928;12.704;2023-09-12T06:14:58;20.60;99.90
10572;DHT22;5334;48.928;12.704;2023-09-12T06:19:50;21.00;99.90
10572;DHT22;5334;48.928;12.704;2023-09-12T06:22:17;21.30;99.90
10572;DHT22;5334;48.928;12.704;2023-09-12T06:24:43;21.60;99.90
10572;DHT22;5334;48.928;12.704;2023-09-12T06:27:09;21.90;99.90
10572;DHT22;5334;48.928;12.704;2023-09-12T06:32:03;22.00;99.90
10572;DHT22;5334;48.928;12.704;2023-09-12T06:34:29;22.00;99.90
10572;DHT22;5334;48.928;12.704;2023-09-12T06:36:55;22.10;99.90
10572;DHT22;5334;48.928;12.704;2023-09-12T06:39:21;22.10;99.90
10572;DHT22;5334;48.928;12.704;2023-09-12T06:41:46;22.10;99.90
10572;DHT22;5334;48.928;12.704;2023-09-12T06:44:12;22.30;99.90
10572;DHT22;5334;48.928;12.704;2023-09-12T06:46:37;22.60;99.90
10572;DHT22;5334;48.928;12.704;2023-09-12T06:49:03;23.00;99.90
10572;DHT22;5334;48.928;12.704;2023-09-12T06:51:29;23.30;99.90
10572;DHT22;5334;48.928;12.704;2023-09-12T06:53:55;23.50;99.90
10572;DHT22;5334;48.928;12.704;2023-09-12T06:56:21;23.70;99.90
10572;DHT22;5334;48.928;12.704;2023-09-12T06:58:48;23.80;99.90
10572;DHT22;5334;48.928;12.704;2023-09-12T07:01:14;23.90;99.90
10572;DHT22;5334;48.928;12.704;2023-09-12T07:03:39;23.80;99.90
10572;DHT22;5334;48.928;12.704;2023-09-12T07:06:05;23.70;99.90
10572;DHT22;5334;48.928;12.704;2023-09-12T07:08:32;23.70;99.90
10572;DHT22;5334;48.928;12.704;2023-09-12T07:11:01;23.80;99.90
10572;DHT22;5334;48.928;12.704;2023-09-12T07:13:31;23.80;99.90
10572;DHT22;5334;48.928;12.704;2023-09-12T07:15:57;23.80;99.90
10572;DHT22;5334;48.928;12.704;2023-09-12T07:18:23;23.90;99.90
10572;DHT22;5334;48.928;12.704;2023-09-12T07:20:59;24.00;99.90
10572;DHT22;5334;48.928;12.704;2023-09-12T07:23:25;24.10;99.90
10572;DHT22;5334;48.928;12.704;2023-09-12T07:25:51;24.10;99.90
10572;DHT22;5334;48.928;12.704;2023-09-12T07:30:47;24.70;99.90
10572;DHT22;5334;48.928;12.704;2023-09-12T07:33:13;24.80;99.90
10572;DHT22;5334;48.928;12.704;2023-09-12T07:35:39;24.80;99.90
10572;DHT22;5334;48.928;12.704;2023-09-12T07:38:05;24.90;99.90
10572;DHT22;5334;48.928;12.704;2023-09-12T07:40:31;25.30;99.90
10572;DHT22;5334;48.928;12.704;2023-09-12T07:42:56;25.40;99.90
10572;DHT22;5334;48.928;12.704;2023-09-12T07:45:22;25.50;99.90
10572;DHT22;5334;48.928;12.704;2023-09-12T07:47:47;25.50;99.90
10572;DHT22;5334;48.928;12.704;2023-09-12T07:50:14;25.30;99.90
10572;DHT22;5334;48.928;12.704;2023-09-12T07:52:39;25.50;99.90
10572;DHT22;5334;48.928;12.704;2023-09-12T07:55:06;25.70;99.90
10572;DHT22;5334;48.928;12.704;2023-09-12T07:57:32;25.50;99.90
10572;DHT22;5334;48.928;12.704;2023-09-12T07:59:58;25.40;99.90
10572;DHT22;5334;48.928;12.704;2023-09-12T08:02:24;25.40;99.90
10572;DHT22;5334;48.928;12.704;2023-09-12T08:04:50;25.40;99.90
10572;DHT22;5334;48.928;12.704;2023-09-12T08:07:19;25.70;99.90
10572;DHT22;5334;48.928;12.704;2023-09-12T08:09:53;25.70;99.90
10572;DHT22;5334;48.928;12.704;2023-09-12T08:12:21;25.80;99.90
10572;DHT22;5334;48.928;12.704;2023-09-12T08:14:47;26.10;99.90
10572;DHT22;5334;48.928;12.704;2023-09-12T08:19:39;26.50;99.90
10572;DHT22;5334;48.928;12.704;2023-09-12T08:22:06;26.50;99.90
10572;DHT22;5334;48.928;12.704;2023-09-12T08:24:33;26.50;99.90
10572;DHT22;5334;48.928;12.704;2023-09-12T08:26:59;26.40;99.90
10572;DHT22;5334;48.928;12.704;2023-09-12T08:29:25;26.50;99.90
10572;DHT22;5334;48.928;12.704;2023-09-12T08:31:50;26.70;99.90
10572;DHT22;5334;48.928;12.704;2023-09-12T08:34:17;26.90;99.90
10572;DHT22;5334;48.928;12.704;2023-09-12T08:36:43;27.00;99.90
10572;DHT22;5334;48.928;12.704;2023-09-12T08:39:13;26.80;99.90
10572;DHT22;5334;48.928;12.704;2023-09-12T08:41:39;26.60;99.90
10572;DHT22;5334;48.928;12.704;2023-09-12T08:44:05;26.60;99.90
10572;DHT22;5334;48.928;12.704;2023-09-12T08:46:31;26.60;99.90
10572;DHT22;5334;48.928;12.704;2023-09-12T08:48:57;26.80;99.90
10572;DHT22;5334;48.928;12.704;2023-09-12T08:51:23;26.90;99.90
10572;DHT22;5334;48.928;12.704;2023-09-12T08:56:17;27.40;99.90
10572;DHT22;5334;48.928;12.704;2023-09-12T08:58:44;27.50;99.90
10572;DHT22;5334;48.928;12.704;2023-09-12T09:01:13;27.70;99.90
10572;DHT22;5334;48.928;12.704;2023-09-12T09:03:42;27.90;99.90
10572;DHT22;5334;48.928;12.704;2023-09-12T09:08:37;28.10;99.90
10572;DHT22;5334;48.928;12.704;2023-09-12T09:11:03;28.30;99.90
10572;DHT22;5334;48.928;12.704;2023-09-12T09:13:31;28.50;99.90
10572;DHT22;5334;48.928;12.704;2023-09-12T09:16:23;28.70;99.90
10572;DHT22;5334;48.928;12.704;2023-09-12T09:18:53;28.90;99.90
10572;DHT22;5334;48.928;12.704;2023-09-12T09:21:20;28.80;99.90
10572;DHT22;5334;48.928;12.704;2023-09-12T09:23:47;29.00;99.90
10572;DHT22;5334;48.928;12.704;2023-09-12T09:26:13;29.00;99.90
10572;DHT22;5334;48.928;12.704;2023-09-12T09:28:39;29.10;99.90
10572;DHT22;5334;48.928;12.704;2023-09-12T09:31:10;29.30;99.90
10572;DHT22;5334;48.928;12.704;2023-09-12T09:33:37;29.40;99.90
10572;DHT22;5334;48.928;12.704;2023-09-12T09:36:04;29.70;99.90
10572;DHT22;5334;48.928;12.704;2023-09-12T09:38:31;29.80;99.90
10572;DHT22;5334;48.928;12.704;2023-09-12T09:40:57;29.80;99.90
10572;DHT22;5334;48.928;12.704;2023-09-12T09:43:22;29.50;99.90
10572;DHT22;5334;48.928;12.704;2023-09-12T09:45:50;29.50;99.90
10572;DHT22;5334;48.928;12.704;2023-09-12T09:48:23;29.60;99.90
10572;DHT22;5334;48.928;12.704;2023-09-12T09:50:50;29.80;99.30
10572;DHT22;5334;48.928;12.704;2023-09-12T09:53:17;29.70;99.40
10572;DHT22;5334;48.928;12.704;2023-09-12T09:55:42;30.10;99.40
10572;DHT22;5334;48.928;12.704;2023-09-12T09:58:08;30.50;99.10
10572;DHT22;5334;48.928;12.704;2023-09-12T10:00:36;30.60;98.60
10572;DHT22;5334;48.928;12.704;2023-09-12T10:03:05;30.70;98.00
10572;DHT22;5334;48.928;12.704;2023-09-12T10:05:32;31.00;97.30
10572;DHT22;5334;48.928;12.704;2023-09-12T10:07:59;31.40;97.20
10572;DHT22;5334;48.928;12.704;2023-09-12T10:10:29;31.50;96.10
10572;DHT22;5334;48.928;12.704;2023-09-12T10:12:57;31.40;96.90
10572;DHT22;5334;48.928;12.704;2023-09-12T10:15:27;31.50;96.20
10572;DHT22;5334;48.928;12.704;2023-09-12T10:17:58;31.40;96.40
10572;DHT22;5334;48.928;12.704;2023-09-12T10:20:29;31.40;96.00
10572;DHT22;5334;48.928;12.704;2023-09-12T10:23:23;31.10;95.90
10572;DHT22;5334;48.928;12.704;2023-09-12T10:25:50;30.90;96.50
10572;DHT22;5334;48.928;12.704;2023-09-12T10:28:17;31.10;96.50
10572;DHT22;5334;48.928;12.704;2023-09-12T10:30:44;31.30;95.50
10572;DHT22;5334;48.928;12.704;2023-09-12T10:33:11;31.60;96.10
10572;DHT22;5334;48.928;12.704;2023-09-12T10:35:38;31.30;94.80
10572;DHT22;5334;48.928;12.704;2023-09-12T10:38:05;31.10;95.30
10572;DHT22;5334;48.928;12.704;2023-09-12T10:40:36;31.10;94.10
10572;DHT22;5334;48.928;12.704;2023-09-12T10:43:03;31.40;94.70
10572;DHT22;5334;48.928;12.704;2023-09-12T10:45:31;31.40;94.60
10572;DHT22;5334;48.928;12.704;2023-09-12T10:47:58;31.50;94.70
10572;DHT22;5334;48.928;12.704;2023-09-12T10:50:24;31.40;94.40
10572;DHT22;5334;48.928;12.704;2023-09-12T10:52:50;31.40;94.20
10572;DHT22;5334;48.928;12.704;2023-09-12T10:55:16;31.60;94.00
10572;DHT22;5334;48.928;12.704;2023-09-12T10:58:05;31.60;93.80
10572;DHT22;5334;48.928;12.704;2023-09-12T11:00:31;31.80;93.90
10572;DHT22;5334;48.928;12.704;2023-09-12T11:02:59;32.00;93.50
10572;DHT22;5334;48.928;12.704;2023-09-12T11:07:58;32.00;93.40
10572;DHT22;5334;48.928;12.704;2023-09-12T11:10:24;31.90;92.90
10572;DHT22;5334;48.928;12.704;2023-09-12T11:12:52;31.80;93.10
10572;DHT22;5334;48.928;12.704;2023-09-12T11:15:20;31.80;93.50
10572;DHT22;5334;48.928;12.704;2023-09-12T11:17:47;31.70;92.40
10572;DHT22;5334;48.928;12.704;2023-09-12T11:20:14;31.50;92.80
10572;DHT22;5334;48.928;12.704;2023-09-12T11:22:43;31.50;92.80
10572;DHT22;5334;48.928;12.704;2023-09-12T11:25:23;31.80;93.00
10572;DHT22;5334;48.928;12.704;2023-09-12T11:30:19;32.40;92.00
10572;DHT22;5334;48.928;12.704;2023-09-12T11:32:50;32.60;91.70
10572;DHT22;5334;48.928;12.704;2023-09-12T11:35:17;32.60;91.60
10572;DHT22;5334;48.928;12.704;2023-09-12T11:37:51;32.30;92.00
10572;DHT22;5334;48.928;12.704;2023-09-12T11:40:23;32.00;91.10
10572;DHT22;5334;48.928;12.704;2023-09-12T11:42:49;32.10;90.90
10572;DHT22;5334;48.928;12.704;2023-09-12T11:45:18;32.60;91.30
10572;DHT22;5334;48.928;12.704;2023-09-12T11:47:45;32.40;90.50
10572;DHT22;5334;48.928;12.704;2023-09-12T11:50:33;32.00;90.60
10572;DHT22;5334;48.928;12.704;2023-09-12T11:53:11;32.20;90.60
10572;DHT22;5334;48.928;12.704;2023-09-12T11:55:47;32.50;90.90
10572;DHT22;5334;48.928;12.704;2023-09-12T11:58:15;32.60;89.60
10572;DHT22;5334;48.928;12.704;2023-09-12T12:00:49;32.60;90.40
10572;DHT22;5334;48.928;12.704;2023-09-12T12:03:16;32.80;90.10
10572;DHT22;5334;48.928;12.704;2023-09-12T12:05:42;33.30;90.70
10572;DHT22;5334;48.928;12.704;2023-09-12T12:08:08;33.40;90.20
10572;DHT22;5334;48.928;12.704;2023-09-12T12:10:35;33.50;90.00
10572;DHT22;5334;48.928;12.704;2023-09-12T12:13:03;33.50;87.90
10572;DHT22;5334;48.928;12.704;2023-09-12T12:15:29;33.60;88.20
10572;DHT22;5334;48.928;12.704;2023-09-12T12:17:55;33.60;86.70
10572;DHT22;5334;48.928;12.704;2023-09-12T12:20:21;34.00;86.40
10572;DHT22;5334;48.928;12.704;2023-09-12T12:22:47;34.00;86.40
10572;DHT22;5334;48.928;12.704;2023-09-12T12:25:14;34.10;85.00
10572;DHT22;5334;48.928;12.704;2023-09-12T12:27:41;33.80;84.10
10572;DHT22;5334;48.928;12.704;2023-09-12T12:30:08;33.50;83.90
10572;DHT22;5334;48.928;12.704;2023-09-12T12:32:39;33.50;87.30
10572;DHT22;5334;48.928;12.704;2023-09-12T12:35:05;33.10;84.10
10572;DHT22;5334;48.928;12.704;2023-09-12T12:37:32;32.70;84.10
10572;DHT22;5334;48.928;12.704;2023-09-12T12:40:00;32.60;83.50
10572;DHT22;5334;48.928;12.704;2023-09-12T12:42:33;32.90;83.80
10572;DHT22;5334;48.928;12.704;2023-09-12T12:44:59;32.70;85.30
10572;DHT22;5334;48.928;12.704;2023-09-12T12:47:25;32.50;85.30
10572;DHT22;5334;48.928;12.704;2023-09-12T12:49:53;32.60;83.90
10572;DHT22;5334;48.928;12.704;2023-09-12T12:52:25;32.70;83.60
10572;DHT22;5334;48.928;12.704;2023-09-12T12:54:51;32.80;85.10
10572;DHT22;5334;48.928;12.704;2023-09-12T12:57:20;32.70;84.60
10572;DHT22;5334;48.928;12.704;2023-09-12T12:59:48;32.50;83.10
10572;DHT22;5334;48.928;12.704;2023-09-12T13:02:15;32.20;83.60
10572;DHT22;5334;48.928;12.704;2023-09-12T13:04:41;32.20;84.30
10572;DHT22;5334;48.928;12.704;2023-09-12T13:07:06;32.30;82.00
10572;DHT22;5334;48.928;12.704;2023-09-12T13:09:32;32.30;85.10
10572;DHT22;5334;48.928;12.704;2023-09-12T13:11:59;32.40;87.10
10572;DHT22;5334;48.928;12.704;2023-09-12T13:14:25;32.60;85.20
10572;DHT22;5334;48.928;12.704;2023-09-12T13:16:57;32.60;85.00
10572;DHT22;5334;48.928;12.704;2023-09-12T13:19:23;32.10;83.50
10572;DHT22;5334;48.928;12.704;2023-09-12T13:21:49;32.00;85.90
10572;DHT22;5334;48.928;12.704;2023-09-12T13:24:15;32.00;85.30
10572;DHT22;5334;48.928;12.704;2023-09-12T13:26:40;32.00;86.00
10572;DHT22;5334;48.928;12.704;2023-09-12T13:29:06;32.10;86.10
10572;DHT22;5334;48.928;12.704;2023-09-12T13:31:32;32.00;84.50
10572;DHT22;5334;48.928;12.704;2023-09-12T13:33:57;32.20;85.90
10572;DHT22;5334;48.928;12.704;2023-09-12T13:36:24;32.80;85.40
10572;DHT22;5334;48.928;12.704;2023-09-12T13:38:50;33.70;83.00
10572;DHT22;5334;48.928;12.704;2023-09-12T13:41:17;33.80;82.50
10572;DHT22;5334;48.928;12.704;2023-09-12T13:43:43;33.80;79.70
10572;DHT22;5334;48.928;12.704;2023-09-12T13:46:12;34.10;82.30
10572;DHT22;5334;48.928;12.704;2023-09-12T13:48:38;33.80;80.80
10572;DHT22;5334;48.928;12.704;2023-09-12T13:51:03;33.20;82.60
10572;DHT22;5334;48.928;12.704;2023-09-12T13:53:30;33.20;82.20
10572;DHT22;5334;48.928;12.704;2023-09-12T13:55:55;32.90;81.70
10572;DHT22;5334;48.928;12.704;2023-09-12T13:58:23;32.90;81.40
10572;DHT22;5334;48.928;12.704;2023-09-12T14:00:48;33.30;83.50
10572;DHT22;5334;48.928;12.704;2023-09-12T14:03:14;33.00;81.90
10572;DHT22;5334;48.928;12.704;2023-09-12T14:05:40;32.70;81.50
10572;DHT22;5334;48.928;12.704;2023-09-12T14:08:06;32.40;80.00
10572;DHT22;5334;48.928;12.704;2023-09-12T14:10:32;32.10;81.00
10572;DHT22;5334;48.928;12.704;2023-09-12T14:12:57;31.90;81.40
10572;DHT22;5334;48.928;12.704;2023-09-12T14:15:23;31.80;82.40
10572;DHT22;5334;48.928;12.704;2023-09-12T14:17:48;31.70;84.20
10572;DHT22;5334;48.928;12.704;2023-09-12T14:20:14;31.70;85.00
10572;DHT22;5334;48.928;12.704;2023-09-12T14:22:43;32.00;83.90
10572;DHT22;5334;48.928;12.704;2023-09-12T14:25:09;32.20;83.80
10572;DHT22;5334;48.928;12.704;2023-09-12T14:27:43;32.20;84.20
10572;DHT22;5334;48.928;12.704;2023-09-12T14:30:10;32.30;83.10
10572;DHT22;5334;48.928;12.704;2023-09-12T14:32:36;32.40;82.90
10572;DHT22;5334;48.928;12.704;2023-09-12T14:35:03;32.60;83.70
10572;DHT22;5334;48.928;12.704;2023-09-12T14:37:29;32.70;82.50
10572;DHT22;5334;48.928;12.704;2023-09-12T14:39:54;32.70;82.60
10572;DHT22;5334;48.928;12.704;2023-09-12T14:42:21;32.70;82.50
10572;DHT22;5334;48.928;12.704;2023-09-12T14:44:48;32.90;80.80
10572;DHT22;5334;48.928;12.704;2023-09-12T14:47:14;33.30;81.80
10572;DHT22;5334;48.928;12.704;2023-09-12T14:49:39;33.40;81.10
10572;DHT22;5334;48.928;12.704;2023-09-12T14:52:05;33.50;78.90
10572;DHT22;5334;48.928;12.704;2023-09-12T14:54:31;33.70;76.80
10572;DHT22;5334;48.928;12.704;2023-09-12T14:56:57;33.70;77.50
10572;DHT22;5334;48.928;12.704;2023-09-12T14:59:22;33.90;77.80
10572;DHT22;5334;48.928;12.704;2023-09-12T15:01:48;34.00;75.60
10572;DHT22;5334;48.928;12.704;2023-09-12T15:04:14;34.20;73.90
10572;DHT22;5334;48.928;12.704;2023-09-12T15:06:39;34.10;75.20
10572;DHT22;5334;48.928;12.704;2023-09-12T15:09:05;34.30;74.80
10572;DHT22;5334;48.928;12.704;2023-09-12T15:11:31;34.20;74.50
10572;DHT22;5334;48.928;12.704;2023-09-12T15:13:57;33.90;75.10
10572;DHT22;5334;48.928;12.704;2023-09-12T15:16:25;34.00;75.30
10572;DHT22;5334;48.928;12.704;2023-09-12T15:18:52;34.40;76.00
10572;DHT22;5334;48.928;12.704;2023-09-12T15:21:18;34.20;73.30
10572;DHT22;5334;48.928;12.704;2023-09-12T15:23:43;34.10;74.00
10572;DHT22;5334;48.928;12.704;2023-09-12T15:26:09;33.90;75.30
10572;DHT22;5334;48.928;12.704;2023-09-12T15:28:35;33.80;75.60
10572;DHT22;5334;48.928;12.704;2023-09-12T15:31:01;33.70;76.50
10572;DHT22;5334;48.928;12.704;2023-09-12T15:33:28;33.80;76.50
10572;DHT22;5334;48.928;12.704;2023-09-12T15:35:55;33.90;76.50
10572;DHT22;5334;48.928;12.704;2023-09-12T15:38:21;33.80;76.70
10572;DHT22;5334;48.928;12.704;2023-09-12T15:40:46;33.70;75.30
10572;DHT22;5334;48.928;12.704;2023-09-12T15:43:12;33.60;75.40
10572;DHT22;5334;48.928;12.704;2023-09-12T15:45:38;33.70;75.60
10572;DHT22;5334;48.928;12.704;2023-09-12T15:48:04;33.70;75.90
10572;DHT22;5334;48.928;12.704;2023-09-12T15:50:30;33.70;76.40
10572;DHT22;5334;48.928;12.704;2023-09-12T15:52:55;33.80;76.70
10572;DHT22;5334;48.928;12.704;2023-09-12T15:55:21;33.80;76.50
10572;DHT22;5334;48.928;12.704;2023-09-12T15:57:46;33.60;76.30
10572;DHT22;5334;48.928;12.704;2023-09-12T16:00:13;33.50;75.40
10572;DHT22;5334;48.928;12.704;2023-09-12T16:02:40;33.30;76.10
10572;DHT22;5334;48.928;12.704;2023-09-12T16:05:07;33.10;76.80
10572;DHT22;5334;48.928;12.704;2023-09-12T16:07:33;33.00;77.40